sensor_id;sensor_type;location;lat;lon;timestamp;temperature;humidity
13253;DHT22;6693;54.370;10.132;2022-09-11T00:00:13;21.20;99.90
13253;DHT22;6693;54.370;10.132;2022-09-11T00:02:16;21.10;99.90
13253;DHT22;6693;54.370;10.132;2022-09-11T00:04:18;21.10;99.90
13253;DHT22;6693;54.370;10.132;2022-09-11T00:06:20;21.10;99.90
13253;DHT22;6693;54.370;10.132;2022-09-11T00:08:21;21.20;99.90
13253;DHT22;6693;54.370;10.132;2022-09-11T00:10:22;21.20;99.90
13253;DHT22;6693;54.370;10.132;2022-09-11T00:12:24;21.20;99.90
13253;DHT22;6693;54.370;10.132;2022-09-11T00:14:26;21.30;99.90
13253;DHT22;6693;54.370;10.132;2022-09-11T00:16:29;21.30;99.90
13253;DHT22;6693;54.370;10.132;2022-09-11T00:18:34;21.40;99.90
13253;DHT22;6693;54.370;10.132;2022-09-11T00:20:35;21.40;99.90
13253;DHT22;6693;54.370;10.132;2022-09-11T00:22:37;21.30;99.90
13253;DHT22;6693;54.370;10.132;2022-09-11T00:24:39;21.40;99.90
13253;DHT22;6693;54.370;10.132;2022-09-11T00:26:41;21.50;99.90
13253;DHT22;6693;54.370;10.132;2022-09-11T00:28:43;21.50;99.90
13253;DHT22;6693;54.370;10.132;2022-09-11T00:30:45;21.50;99.90
13253;DHT22;6693;54.370;10.132;2022-09-11T00:32:47;21.60;99.90
13253;DHT22;6693;54.370;10.132;2022-09-11T00:34:50;21.60;99.90
13253;DHT22;6693;54.370;10.132;2022-09-11T00:36:52;21.60;99.90
13253;DHT22;6693;54.370;10.132;2022-09-11T00:38:53;21.50;99.90
13253;DHT22;6693;54.370;10.132;2022-09-11T00:40:58;21.60;99.90
13253;DHT22;6693;54.370;10.132;2022-09-11T00:43:00;21.40;99.90
13253;DHT22;6693;54.370;10.132;2022-09-11T00:45:05;19.80;99.90
13253;DHT22;6693;54.370;10.132;2022-09-11T00:47:07;21.60;99.90
13253;DHT22;6693;54.370;10.132;2022-09-11T00:49:12;21.60;99.90
13253;DHT22;6693;54.370;10.132;2022-09-11T00:51:18;21.60;99.90
13253;DHT22;6693;54.370;10.132;2022-09-11T00:53:22;21.80;99.90
13253;DHT22;6693;54.370;10.132;2022-09-11T00:55:26;21.70;99.90
13253;DHT22;6693;54.370;10.132;2022-09-11T00:57:32;21.60;99.90
13253;DHT22;6693;54.370;10.132;2022-09-11T00:59:35;21.80;99.90
13253;DHT22;6693;54.370;10.132;2022-09-11T01:01:39;21.70;99.90
13253;DHT22;6693;54.370;10.132;2022-09-11T01:03:41;21.80;99.90
13253;DHT22;6693;54.370;10.132;2022-09-11T01:05:43;21.80;99.90
13253;DHT22;6693;54.370;10.132;2022-09-11T01:07:46;21.80;99.90
13253;DHT22;6693;54.370;10.132;2022-09-11T01:09:47;21.60;99.90
13253;DHT22;6693;54.370;10.132;2022-09-11T01:11:52;21.60;99.90
13253;DHT22;6693;54.370;10.132;2022-09-11T01:14:00;21.70;99.90
13253;DHT22;6693;54.370;10.132;2022-09-11T01:16:08;21.70;99.90
13253;DHT22;6693;54.370;10.132;2022-09-11T01:18:13;21.60;99.90
13253;DHT22;6693;54.370;10.132;2022-09-11T01:20:20;21.60;99.90
13253;DHT22;6693;54.370;10.132;2022-09-11T01:22:27;21.50;99.90
13253;DHT22;6693;54.370;10.132;2022-09-11T01:24:42;21.50;99.90
13253;DHT22;6693;54.370;10.132;2022-09-11T01:26:59;21.40;99.90
13253;DHT22;6693;54.370;10.132;2022-09-11T01:29:10;21.40;99.90
13253;DHT22;6693;54.370;10.132;2022-09-11T01:31:16;21.40;99.90
13253;DHT22;6693;54.370;10.132;2022-09-11T01:33:20;21.40;99.90
13253;DHT22;6693;54.370;10.132;2022-09-11T01:35:25;21.30;99.90
13253;DHT22;6693;54.370;10.132;2022-09-11T01:37:28;21.30;99.90
13253;DHT22;6693;54.370;10.132;2022-09-11T01:39:32;21.30;99.90
13253;DHT22;6693;54.370;10.132;2022-09-11T01:41:37;21.30;99.90
13253;DHT22;6693;54.370;10.132;2022-09-11T01:43:41;21.30;99.90
13253;DHT22;6693;54.370;10.132;2022-09-11T01:45:45;21.20;99.90
13253;DHT22;6693;54.370;10.132;2022-09-11T01:47:47;21.20;99.90
13253;DHT22;6693;54.370;10.132;2022-09-11T01:49:54;21.30;99.90
13253;DHT22;6693;54.370;10.132;2022-09-11T01:51:58;21.30;99.90
13253;DHT22;6693;54.370;10.132;2022-09-11T01:54:01;21.30;99.90
13253;DHT22;6693;54.370;10.132;2022-09-11T01:56:04;21.30;99.90
13253;DHT22;6693;54.370;10.132;2022-09-11T01:58:07;21.20;99.90
13253;DHT22;6693;54.370;10.132;2022-09-11T02:00:10;21.10;99.90
13253;DHT22;6693;54.370;10.132;2022-09-11T02:02:15;21.10;99.90
13253;DHT22;6693;54.370;10.132;2022-09-11T02:04:19;21.20;99.90
13253;DHT22;6693;54.370;10.132;2022-09-11T02:06:23;21.10;99.90
13253;DHT22;6693;54.370;10.132;2022-09-11T02:08:27;21.20;99.90
13253;DHT22;6693;54.370;10.132;2022-09-11T02:10:30;21.20;99.90
13253;DHT22;6693;54.370;10.132;2022-09-11T02:12:36;21.40;99.90
13253;DHT22;6693;54.370;10.132;2022-09-11T02:14:40;21.20;99.90
13253;DHT22;6693;54.370;10.132;2022-09-11T02:16:45;21.30;99.90
13253;DHT22;6693;54.370;10.132;2022-09-11T02:18:52;21.40;99.90
13253;DHT22;6693;54.370;10.132;2022-09-11T02:20:54;21.40;99.90
13253;DHT22;6693;54.370;10.132;2022-09-11T02:22:57;21.40;99.90
13253;DHT22;6693;54.370;10.132;2022-09-11T02:24:58;21.40;99.90
13253;DHT22;6693;54.370;10.132;2022-09-11T02:27:02;21.40;99.90
13253;DHT22;6693;54.370;10.132;2022-09-11T02:29:05;21.50;99.90
13253;DHT22;6693;54.370;10.132;2022-09-11T02:31:07;22.80;99.90
13253;DHT22;6693;54.370;10.132;2022-09-11T02:35:27;21.60;99.90
13253;DHT22;6693;54.370;10.132;2022-09-11T02:37:36;21.50;99.90
13253;DHT22;6693;54.370;10.132;2022-09-11T02:39:46;21.50;99.90
13253;DHT22;6693;54.370;10.132;2022-09-11T02:41:53;21.60;99.90
13253;DHT22;6693;54.370;10.132;2022-09-11T02:43:58;21.50;99.90
13253;DHT22;6693;54.370;10.132;2022-09-11T02:46:08;21.50;99.90
13253;DHT22;6693;54.370;10.132;2022-09-11T02:48:19;21.40;99.90
13253;DHT22;6693;54.370;10.132;2022-09-11T02:50:27;21.50;99.90
13253;DHT22;6693;54.370;10.132;2022-09-11T02:52:32;21.50;99.90
13253;DHT22;6693;54.370;10.132;2022-09-11T02:54:39;21.60;99.90
13253;DHT22;6693;54.370;10.132;2022-09-11T02:56:43;21.50;99.90
13253;DHT22;6693;54.370;10.132;2022-09-11T02:58:48;21.50;99.90
13253;DHT22;6693;54.370;10.132;2022-09-11T03:00:50;21.30;99.90
13253;DHT22;6693;54.370;10.132;2022-09-11T03:02:52;21.30;99.90
13253;DHT22;6693;54.370;10.132;2022-09-11T03:04:54;21.30;99.90
13253;DHT22;6693;54.370;10.132;2022-09-11T03:06:57;21.30;99.90
13253;DHT22;6693;54.370;10.132;2022-09-11T03:08:59;21.20;99.90
13253;DHT22;6693;54.370;10.132;2022-09-11T03:11:01;21.10;99.90
13253;DHT22;6693;54.370;10.132;2022-09-11T03:13:02;21.00;99.90
13253;DHT22;6693;54.370;10.132;2022-09-11T03:15:04;21.00;99.90
13253;DHT22;6693;54.370;10.132;2022-09-11T03:17:06;21.00;99.90
13253;DHT22;6693;54.370;10.132;2022-09-11T03:19:07;21.00;99.90
13253;DHT22;6693;54.370;10.132;2022-09-11T03:21:09;21.00;99.90
13253;DHT22;6693;54.370;10.132;2022-09-11T03:23:12;20.90;99.90
13253;DHT22;6693;54.370;10.132;2022-09-11T03:25:14;20.90;99.90
13253;DHT22;6693;54.370;10.132;2022-09-11T03:27:15;20.80;99.90
13253;DHT22;6693;54.370;10.132;2022-09-11T03:29:17;20.80;99.90
13253;DHT22;6693;54.370;10.132;2022-09-11T03:31:19;20.80;99.90
13253;DHT22;6693;54.370;10.132;2022-09-11T03:33:20;20.70;99.90
13253;DHT22;6693;54.370;10.132;2022-09-11T03:35:22;20.70;99.90
13253;DHT22;6693;54.370;10.132;2022-09-11T03:37:24;20.80;99.90
13253;DHT22;6693;54.370;10.132;2022-09-11T03:39:27;20.70;99.90
13253;DHT22;6693;54.370;10.132;2022-09-11T03:41:29;20.70;99.90
13253;DHT22;6693;54.370;10.132;2022-09-11T03:43:31;20.60;99.90
13253;DHT22;6693;54.370;10.132;2022-09-11T03:45:33;20.50;99.90
13253;DHT22;6693;54.370;10.132;2022-09-11T03:47:34;20.50;99.90
13253;DHT22;6693;54.370;10.132;2022-09-11T03:49:36;20.60;99.90
13253;DHT22;6693;54.370;10.132;2022-09-11T03:51:38;20.60;99.90
13253;DHT22;6693;54.370;10.132;2022-09-11T03:53:40;20.70;99.90
13253;DHT22;6693;54.370;10.132;2022-09-11T03:55:43;20.70;99.90
13253;DHT22;6693;54.370;10.132;2022-09-11T03:57:44;20.60;99.90
13253;DHT22;6693;54.370;10.132;2022-09-11T03:59:46;20.40;99.90
13253;DHT22;6693;54.370;10.132;2022-09-11T04:01:47;20.40;99.90
13253;DHT22;6693;54.370;10.132;2022-09-11T04:03:49;20.50;99.90
13253;DHT22;6693;54.370;10.132;2022-09-11T04:05:55;20.50;99.90
13253;DHT22;6693;54.370;10.132;2022-09-11T04:07:57;20.50;99.90
13253;DHT22;6693;54.370;10.132;2022-09-11T04:09:58;20.40;99.90
13253;DHT22;6693;54.370;10.132;2022-09-11T04:12:01;20.20;99.90
13253;DHT22;6693;54.370;10.132;2022-09-11T04:14:03;20.30;99.90
13253;DHT22;6693;54.370;10.132;2022-09-11T04:16:05;20.20;99.90
13253;DHT22;6693;54.370;10.132;2022-09-11T04:18:07;20.20;99.90
13253;DHT22;6693;54.370;10.132;2022-09-11T04:20:09;20.20;99.90
13253;DHT22;6693;54.370;10.132;2022-09-11T04:22:10;20.20;99.90
13253;DHT22;6693;54.370;10.132;2022-09-11T04:24:12;20.10;99.90
13253;DHT22;6693;54.370;10.132;2022-09-11T04:26:15;20.10;99.90
13253;DHT22;6693;54.370;10.132;2022-09-11T04:28:18;20.10;99.90
13253;DHT22;6693;54.370;10.132;2022-09-11T04:30:21;20.20;99.90
13253;DHT22;6693;54.370;10.132;2022-09-11T04:32:23;20.10;99.90
13253;DHT22;6693;54.370;10.132;2022-09-11T04:34:24;20.10;99.90
13253;DHT22;6693;54.370;10.132;2022-09-11T04:36:26;20.10;99.90
13253;DHT22;6693;54.370;10.132;2022-09-11T04:38:29;20.10;99.90
13253;DHT22;6693;54.370;10.132;2022-09-11T04:40:30;20.00;99.90
13253;DHT22;6693;54.370;10.132;2022-09-11T04:42:32;21.80;99.90
13253;DHT22;6693;54.370;10.132;2022-09-11T04:44:35;19.90;99.90
13253;DHT22;6693;54.370;10.132;2022-09-11T04:46:36;19.80;99.90
13253;DHT22;6693;54.370;10.132;2022-09-11T04:48:42;19.80;99.90
13253;DHT22;6693;54.370;10.132;2022-09-11T04:50:43;19.90;99.90
13253;DHT22;6693;54.370;10.132;2022-09-11T04:52:47;19.90;99.90
13253;DHT22;6693;54.370;10.132;2022-09-11T04:54:48;19.80;99.90
13253;DHT22;6693;54.370;10.132;2022-09-11T04:56:50;19.80;99.90
13253;DHT22;6693;54.370;10.132;2022-09-11T04:58:52;19.70;99.90
13253;DHT22;6693;54.370;10.132;2022-09-11T05:00:55;19.70;99.90
13253;DHT22;6693;54.370;10.132;2022-09-11T05:02:57;19.70;99.90
13253;DHT22;6693;54.370;10.132;2022-09-11T05:04:58;19.70;99.90
13253;DHT22;6693;54.370;10.132;2022-09-11T05:07:00;19.70;99.90
13253;DHT22;6693;54.370;10.132;2022-09-11T05:09:02;19.70;99.90
13253;DHT22;6693;54.370;10.132;2022-09-11T05:11:04;20.20;99.90
13253;DHT22;6693;54.370;10.132;2022-09-11T05:13:06;19.70;99.90
13253;DHT22;6693;54.370;10.132;2022-09-11T05:15:08;19.70;99.90
13253;DHT22;6693;54.370;10.132;2022-09-11T05:17:11;19.70;99.90
13253;DHT22;6693;54.370;10.132;2022-09-11T05:19:13;19.70;99.90
13253;DHT22;6693;54.370;10.132;2022-09-11T05:21:15;19.70;99.90
13253;DHT22;6693;54.370;10.132;2022-09-11T05:23:17;19.80;99.90
13253;DHT22;6693;54.370;10.132;2022-09-11T05:25:19;19.80;99.90
13253;DHT22;6693;54.370;10.132;2022-09-11T05:27:20;19.70;99.90
13253;DHT22;6693;54.370;10.132;2022-09-11T05:29:22;19.60;99.90
13253;DHT22;6693;54.370;10.132;2022-09-11T05:31:26;19.70;99.90
13253;DHT22;6693;54.370;10.132;2022-09-11T05:33:29;19.70;99.90
13253;DHT22;6693;54.370;10.132;2022-09-11T05:35:30;19.70;99.90
13253;DHT22;6693;54.370;10.132;2022-09-11T05:37:32;19.60;99.90
13253;DHT22;6693;54.370;10.132;2022-09-11T05:39:33;19.70;99.90
13253;DHT22;6693;54.370;10.132;2022-09-11T05:41:35;19.70;99.90
13253;DHT22;6693;54.370;10.132;2022-09-11T05:43:37;19.50;99.90
13253;DHT22;6693;54.370;10.132;2022-09-11T05:45:38;19.60;99.90
13253;DHT22;6693;54.370;10.132;2022-09-11T05:47:40;19.60;99.90
13253;DHT22;6693;54.370;10.132;2022-09-11T05:49:43;18.20;99.90
13253;DHT22;6693;54.370;10.132;2022-09-11T05:51:44;19.70;99.90
13253;DHT22;6693;54.370;10.132;2022-09-11T05:53:46;19.70;99.90
13253;DHT22;6693;54.370;10.132;2022-09-11T05:55:48;19.70;99.90
13253;DHT22;6693;54.370;10.132;2022-09-11T05:57:51;19.70;99.90
13253;DHT22;6693;54.370;10.132;2022-09-11T05:59:52;19.90;99.90
13253;DHT22;6693;54.370;10.132;2022-09-11T06:01:54;19.70;99.90
13253;DHT22;6693;54.370;10.132;2022-09-11T06:03:56;19.70;99.90
13253;DHT22;6693;54.370;10.132;2022-09-11T06:05:59;19.80;99.90
13253;DHT22;6693;54.370;10.132;2022-09-11T06:08:01;19.80;99.90
13253;DHT22;6693;54.370;10.132;2022-09-11T06:10:04;19.90;99.90
13253;DHT22;6693;54.370;10.132;2022-09-11T06:12:06;19.90;99.90
13253;DHT22;6693;54.370;10.132;2022-09-11T06:14:11;19.90;99.90
13253;DHT22;6693;54.370;10.132;2022-09-11T06:16:14;19.90;99.90
13253;DHT22;6693;54.370;10.132;2022-09-11T06:18:15;18.90;99.90
13253;DHT22;6693;54.370;10.132;2022-09-11T06:20:17;19.90;99.90
13253;DHT22;6693;54.370;10.132;2022-09-11T06:22:20;19.80;99.90
13253;DHT22;6693;54.370;10.132;2022-09-11T06:24:22;19.80;99.90
13253;DHT22;6693;54.370;10.132;2022-09-11T06:26:24;19.90;99.90
13253;DHT22;6693;54.370;10.132;2022-09-11T06:28:26;19.90;99.90
13253;DHT22;6693;54.370;10.132;2022-09-11T06:30:28;20.00;99.90
13253;DHT22;6693;54.370;10.132;2022-09-11T06:32:30;20.10;99.90
13253;DHT22;6693;54.370;10.132;2022-09-11T06:34:31;20.10;99.90
13253;DHT22;6693;54.370;10.132;2022-09-11T06:36:33;20.20;99.90
13253;DHT22;6693;54.370;10.132;2022-09-11T06:38:36;20.20;99.90
13253;DHT22;6693;54.370;10.132;2022-09-11T06:40:38;20.20;99.90
13253;DHT22;6693;54.370;10.132;2022-09-11T06:42:39;20.30;99.90
13253;DHT22;6693;54.370;10.132;2022-09-11T06:44:41;20.30;99.90
13253;DHT22;6693;54.370;10.132;2022-09-11T06:46:42;18.80;99.90
13253;DHT22;6693;54.370;10.132;2022-09-11T06:48:45;20.40;99.90
13253;DHT22;6693;54.370;10.132;2022-09-11T06:50:47;20.50;99.90
13253;DHT22;6693;54.370;10.132;2022-09-11T06:52:48;19.50;99.90
13253;DHT22;6693;54.370;10.132;2022-09-11T06:54:52;20.50;99.90
13253;DHT22;6693;54.370;10.132;2022-09-11T06:56:54;20.50;99.90
13253;DHT22;6693;54.370;10.132;2022-09-11T06:58:56;20.50;99.90
13253;DHT22;6693;54.370;10.132;2022-09-11T07:01:00;20.60;99.90
13253;DHT22;6693;54.370;10.132;2022-09-11T07:03:03;20.60;99.90
13253;DHT22;6693;54.370;10.132;2022-09-11T07:05:05;20.60;99.90
13253;DHT22;6693;54.370;10.132;2022-09-11T07:07:06;20.70;99.90
13253;DHT22;6693;54.370;10.132;2022-09-11T07:09:08;20.60;99.90
13253;DHT22;6693;54.370;10.132;2022-09-11T07:11:11;20.60;99.90
13253;DHT22;6693;54.370;10.132;2022-09-11T07:13:12;20.70;99.90
13253;DHT22;6693;54.370;10.132;2022-09-11T07:15:14;20.80;99.90
13253;DHT22;6693;54.370;10.132;2022-09-11T07:17:15;20.80;99.90
13253;DHT22;6693;54.370;10.132;2022-09-11T07:19:18;20.70;99.90
13253;DHT22;6693;54.370;10.132;2022-09-11T07:21:20;20.60;99.90
13253;DHT22;6693;54.370;10.132;2022-09-11T07:23:22;20.60;99.90
13253;DHT22;6693;54.370;10.132;2022-09-11T07:25:23;20.60;99.90
13253;DHT22;6693;54.370;10.132;2022-09-11T07:27:26;20.60;99.90
13253;DHT22;6693;54.370;10.132;2022-09-11T07:29:28;20.70;99.90
13253;DHT22;6693;54.370;10.132;2022-09-11T07:31:31;20.70;99.90
13253;DHT22;6693;54.370;10.132;2022-09-11T07:33:33;20.80;99.90
13253;DHT22;6693;54.370;10.132;2022-09-11T07:35:35;20.80;99.90
13253;DHT22;6693;54.370;10.132;2022-09-11T07:37:37;20.70;99.90
13253;DHT22;6693;54.370;10.132;2022-09-11T07:39:38;20.90;99.90
13253;DHT22;6693;54.370;10.132;2022-09-11T07:41:40;21.00;99.90
13253;DHT22;6693;54.370;10.132;2022-09-11T07:43:43;21.00;99.90
13253;DHT22;6693;54.370;10.132;2022-09-11T07:45:45;21.00;99.90
13253;DHT22;6693;54.370;10.132;2022-09-11T07:47:47;21.00;99.90
13253;DHT22;6693;54.370;10.132;2022-09-11T07:49:49;21.10;99.90
13253;DHT22;6693;54.370;10.132;2022-09-11T07:51:50;21.10;99.90
13253;DHT22;6693;54.370;10.132;2022-09-11T07:53:52;21.00;99.90
13253;DHT22;6693;54.370;10.132;2022-09-11T07:55:59;22.80;99.90
13253;DHT22;6693;54.370;10.132;2022-09-11T07:58:02;21.10;99.90
13253;DHT22;6693;54.370;10.132;2022-09-11T08:00:06;21.10;99.90
13253;DHT22;6693;54.370;10.132;2022-09-11T08:02:08;21.30;99.90
13253;DHT22;6693;54.370;10.132;2022-09-11T08:04:11;21.20;99.90
13253;DHT22;6693;54.370;10.132;2022-09-11T08:06:14;21.10;99.90
13253;DHT22;6693;54.370;10.132;2022-09-11T08:08:16;21.00;99.90
13253;DHT22;6693;54.370;10.132;2022-09-11T08:10:18;21.00;99.90
13253;DHT22;6693;54.370;10.132;2022-09-11T08:12:19;21.00;99.90
13253;DHT22;6693;54.370;10.132;2022-09-11T08:14:23;21.00;99.90
13253;DHT22;6693;54.370;10.132;2022-09-11T08:16:27;20.90;99.90
13253;DHT22;6693;54.370;10.132;2022-09-11T08:18:29;21.00;99.90
13253;DHT22;6693;54.370;10.132;2022-09-11T08:20:30;21.00;99.90
13253;DHT22;6693;54.370;10.132;2022-09-11T08:22:32;21.10;99.90
13253;DHT22;6693;54.370;10.132;2022-09-11T08:24:34;21.20;99.90
13253;DHT22;6693;54.370;10.132;2022-09-11T08:26:35;21.30;99.90
13253;DHT22;6693;54.370;10.132;2022-09-11T08:28:37;21.30;99.90
13253;DHT22;6693;54.370;10.132;2022-09-11T08:30:39;21.30;99.90
13253;DHT22;6693;54.370;10.132;2022-09-11T08:32:42;21.20;99.90
13253;DHT22;6693;54.370;10.132;2022-09-11T08:34:44;21.20;99.90
13253;DHT22;6693;54.370;10.132;2022-09-11T08:36:45;21.20;99.90
13253;DHT22;6693;54.370;10.132;2022-09-11T08:38:46;21.30;99.90
13253;DHT22;6693;54.370;10.132;2022-09-11T08:40:48;21.30;99.90
13253;DHT22;6693;54.370;10.132;2022-09-11T08:42:50;21.30;99.90
13253;DHT22;6693;54.370;10.132;2022-09-11T08:44:52;21.40;99.90
13253;DHT22;6693;54.370;10.132;2022-09-11T08:46:56;21.50;99.90
13253;DHT22;6693;54.370;10.132;2022-09-11T08:49:03;21.60;99.90
13253;DHT22;6693;54.370;10.132;2022-09-11T08:51:07;21.70;99.90
13253;DHT22;6693;54.370;10.132;2022-09-11T08:53:11;21.70;99.90
13253;DHT22;6693;54.370;10.132;2022-09-11T08:55:15;21.70;99.90
13253;DHT22;6693;54.370;10.132;2022-09-11T08:57:19;21.70;99.90
13253;DHT22;6693;54.370;10.132;2022-09-11T08:59:27;21.80;99.90
13253;DHT22;6693;54.370;10.132;2022-09-11T09:01:34;21.70;99.90
13253;DHT22;6693;54.370;10.132;2022-09-11T09:03:44;21.80;99.90
13253;DHT22;6693;54.370;10.132;2022-09-11T09:05:52;21.80;99.90
13253;DHT22;6693;54.370;10.132;2022-09-11T09:07:59;21.90;99.90
13253;DHT22;6693;54.370;10.132;2022-09-11T09:10:05;21.90;99.90
13253;DHT22;6693;54.370;10.132;2022-09-11T09:12:14;21.90;99.90
13253;DHT22;6693;54.370;10.132;2022-09-11T09:14:20;21.90;99.90
13253;DHT22;6693;54.370;10.132;2022-09-11T09:16:27;22.00;99.90
13253;DHT22;6693;54.370;10.132;2022-09-11T09:18:35;22.10;99.90
13253;DHT22;6693;54.370;10.132;2022-09-11T09:20:38;22.20;99.90
13253;DHT22;6693;54.370;10.132;2022-09-11T09:22:44;22.40;99.90
13253;DHT22;6693;54.370;10.132;2022-09-11T09:24:47;22.60;99.90
13253;DHT22;6693;54.370;10.132;2022-09-11T09:26:49;22.80;99.90
13253;DHT22;6693;54.370;10.132;2022-09-11T09:28:53;23.20;99.90
13253;DHT22;6693;54.370;10.132;2022-09-11T09:30:56;23.40;99.90
13253;DHT22;6693;54.370;10.132;2022-09-11T09:32:59;23.80;99.90
13253;DHT22;6693;54.370;10.132;2022-09-11T09:35:02;24.20;99.90
13253;DHT22;6693;54.370;10.132;2022-09-11T09:37:05;24.50;99.90
13253;DHT22;6693;54.370;10.132;2022-09-11T09:39:15;24.50;99.90
13253;DHT22;6693;54.370;10.132;2022-09-11T09:41:24;24.30;99.90
13253;DHT22;6693;54.370;10.132;2022-09-11T09:43:30;24.20;99.90
13253;DHT22;6693;54.370;10.132;2022-09-11T09:45:38;24.00;99.90
13253;DHT22;6693;54.370;10.132;2022-09-11T09:47:41;23.80;99.90
13253;DHT22;6693;54.370;10.132;2022-09-11T09:49:43;23.90;99.90
13253;DHT22;6693;54.370;10.132;2022-09-11T09:51:45;23.90;99.90
13253;DHT22;6693;54.370;10.132;2022-09-11T09:53:49;24.00;99.90
13253;DHT22;6693;54.370;10.132;2022-09-11T09:55:52;23.90;99.90
13253;DHT22;6693;54.370;10.132;2022-09-11T09:57:54;23.90;99.90
13253;DHT22;6693;54.370;10.132;2022-09-11T09:59:56;24.00;99.90
13253;DHT22;6693;54.370;10.132;2022-09-11T10:02:00;23.70;99.90
13253;DHT22;6693;54.370;10.132;2022-09-11T10:04:07;23.60;99.90
13253;DHT22;6693;54.370;10.132;2022-09-11T10:06:10;23.70;99.90
13253;DHT22;6693;54.370;10.132;2022-09-11T10:08:21;24.00;99.90
13253;DHT22;6693;54.370;10.132;2022-09-11T10:10:27;24.50;99.90
13253;DHT22;6693;54.370;10.132;2022-09-11T10:12:30;24.40;99.90
13253;DHT22;6693;54.370;10.132;2022-09-11T10:14:32;24.40;99.90
13253;DHT22;6693;54.370;10.132;2022-09-11T10:16:34;24.80;99.90
13253;DHT22;6693;54.370;10.132;2022-09-11T10:18:38;24.80;99.90
13253;DHT22;6693;54.370;10.132;2022-09-11T10:20:41;24.80;99.90
13253;DHT22;6693;54.370;10.132;2022-09-11T10:22:43;24.70;99.90
13253;DHT22;6693;54.370;10.132;2022-09-11T10:24:46;24.50;99.90
13253;DHT22;6693;54.370;10.132;2022-09-11T10:26:52;23.60;99.90
13253;DHT22;6693;54.370;10.132;2022-09-11T10:28:57;24.20;99.90
13253;DHT22;6693;54.370;10.132;2022-09-11T10:30:59;24.10;99.90
13253;DHT22;6693;54.370;10.132;2022-09-11T10:33:06;24.00;99.90
13253;DHT22;6693;54.370;10.132;2022-09-11T10:35:16;23.80;99.90
13253;DHT22;6693;54.370;10.132;2022-09-11T10:37:21;23.70;99.90
13253;DHT22;6693;54.370;10.132;2022-09-11T10:39:23;23.80;99.90
13253;DHT22;6693;54.370;10.132;2022-09-11T10:41:26;23.90;99.90
13253;DHT22;6693;54.370;10.132;2022-09-11T10:43:33;24.00;99.90
13253;DHT22;6693;54.370;10.132;2022-09-11T10:45:36;23.90;99.90
13253;DHT22;6693;54.370;10.132;2022-09-11T10:47:38;23.80;99.90
13253;DHT22;6693;54.370;10.132;2022-09-11T10:49:40;23.60;99.90
13253;DHT22;6693;54.370;10.132;2022-09-11T10:51:56;23.50;99.90
13253;DHT22;6693;54.370;10.132;2022-09-11T10:54:05;23.50;99.90
13253;DHT22;6693;54.370;10.132;2022-09-11T10:56:08;23.60;99.90
13253;DHT22;6693;54.370;10.132;2022-09-11T10:58:12;22.70;99.90
13253;DHT22;6693;54.370;10.132;2022-09-11T11:00:15;23.80;99.90
13253;DHT22;6693;54.370;10.132;2022-09-11T11:02:26;24.00;99.90
13253;DHT22;6693;54.370;10.132;2022-09-11T11:04:30;24.30;99.90
13253;DHT22;6693;54.370;10.132;2022-09-11T11:06:35;24.60;99.90
13253;DHT22;6693;54.370;10.132;2022-09-11T11:08:54;24.50;96.60
13253;DHT22;6693;54.370;10.132;2022-09-11T11:11:04;24.60;95.90
13253;DHT22;6693;54.370;10.132;2022-09-11T11:13:18;24.50;90.50
13253;DHT22;6693;54.370;10.132;2022-09-11T11:15:33;24.30;44.70
13253;DHT22;6693;54.370;10.132;2022-09-11T11:17:41;24.20;51.90
13253;DHT22;6693;54.370;10.132;2022-09-11T11:19:51;24.00;22.30
13253;DHT22;6693;54.370;10.132;2022-09-11T11:22:00;23.90;21.90
13253;DHT22;6693;54.370;10.132;2022-09-11T11:24:10;23.80;21.50
13253;DHT22;6693;54.370;10.132;2022-09-11T11:26:23;23.80;18.40
13253;DHT22;6693;54.370;10.132;2022-09-11T11:28:34;23.80;13.20
13253;DHT22;6693;54.370;10.132;2022-09-11T11:30:40;22.50;13.10
13253;DHT22;6693;54.370;10.132;2022-09-11T11:32:49;23.90;31.30
13253;DHT22;6693;54.370;10.132;2022-09-11T11:34:56;24.00;10.10
13253;DHT22;6693;54.370;10.132;2022-09-11T11:37:01;24.10;28.70
13253;DHT22;6693;54.370;10.132;2022-09-11T11:39:07;24.30;32.40
13253;DHT22;6693;54.370;10.132;2022-09-11T11:41:14;24.40;1.00
13253;DHT22;6693;54.370;10.132;2022-09-11T11:43:19;24.40;1.00
13253;DHT22;6693;54.370;10.132;2022-09-11T11:45:22;24.50;1.00
13253;DHT22;6693;54.370;10.132;2022-09-11T11:47:28;24.70;1.00
13253;DHT22;6693;54.370;10.132;2022-09-11T11:49:35;24.80;1.00
13253;DHT22;6693;54.370;10.132;2022-09-11T11:51:43;24.90;1.00
13253;DHT22;6693;54.370;10.132;2022-09-11T11:53:47;25.40;1.00
13253;DHT22;6693;54.370;10.132;2022-09-11T11:55:57;25.30;1.00
13253;DHT22;6693;54.370;10.132;2022-09-11T11:58:02;25.50;1.00
13253;DHT22;6693;54.370;10.132;2022-09-11T12:00:08;25.70;99.90
13253;DHT22;6693;54.370;10.132;2022-09-11T12:02:12;25.90;1.00
13253;DHT22;6693;54.370;10.132;2022-09-11T12:04:18;26.40;1.00
13253;DHT22;6693;54.370;10.132;2022-09-11T12:06:23;26.50;1.00
13253;DHT22;6693;54.370;10.132;2022-09-11T12:08:25;26.50;1.00
13253;DHT22;6693;54.370;10.132;2022-09-11T12:10:28;26.50;99.90
13253;DHT22;6693;54.370;10.132;2022-09-11T12:12:30;26.40;30.30
13253;DHT22;6693;54.370;10.132;2022-09-11T12:14:33;26.50;1.00
13253;DHT22;6693;54.370;10.132;2022-09-11T12:16:34;26.30;99.90
13253;DHT22;6693;54.370;10.132;2022-09-11T12:18:38;26.00;99.90
13253;DHT22;6693;54.370;10.132;2022-09-11T12:20:41;25.80;99.90
13253;DHT22;6693;54.370;10.132;2022-09-11T12:22:45;26.00;99.90
13253;DHT22;6693;54.370;10.132;2022-09-11T12:24:49;26.40;99.90
13253;DHT22;6693;54.370;10.132;2022-09-11T12:34:26;27.10;1.00
13253;DHT22;6693;54.370;10.132;2022-09-11T12:36:50;27.70;1.00
13253;DHT22;6693;54.370;10.132;2022-09-11T12:38:55;27.90;1.00
13253;DHT22;6693;54.370;10.132;2022-09-11T12:40:59;27.80;1.00
13253;DHT22;6693;54.370;10.132;2022-09-11T12:43:25;27.90;1.00
13253;DHT22;6693;54.370;10.132;2022-09-11T12:45:28;27.70;1.00
13253;DHT22;6693;54.370;10.132;2022-09-11T12:47:31;27.90;1.00
13253;DHT22;6693;54.370;10.132;2022-09-11T12:49:34;28.10;99.90
13253;DHT22;6693;54.370;10.132;2022-09-11T12:51:37;29.30;99.90
13253;DHT22;6693;54.370;10.132;2022-09-11T12:53:41;27.80;99.90
13253;DHT22;6693;54.370;10.132;2022-09-11T12:55:50;27.90;99.90
13253;DHT22;6693;54.370;10.132;2022-09-11T12:57:53;27.90;99.90
13253;DHT22;6693;54.370;10.132;2022-09-11T12:59:56;27.90;99.90
13253;DHT22;6693;54.370;10.132;2022-09-11T13:01:59;27.90;99.90
13253;DHT22;6693;54.370;10.132;2022-09-11T13:04:05;28.10;99.90
13253;DHT22;6693;54.370;10.132;2022-09-11T13:06:11;28.30;99.90
13253;DHT22;6693;54.370;10.132;2022-09-11T13:08:14;28.70;99.90
13253;DHT22;6693;54.370;10.132;2022-09-11T13:10:23;28.80;99.90
13253;DHT22;6693;54.370;10.132;2022-09-11T13:12:46;28.80;80.50